sensor_id;sensor_type;location;lat;lon;timestamp;pressure;altitude;pressure_sealevel;temperature;humidity
37170;BME280;23062;13.952;100.608;2023-03-16T00:00:15;1012.75;;;30.32;64.19
37170;BME280;23062;13.952;100.608;2023-03-16T00:04:44;1012.89;;;30.32;64.25
37170;BME280;23062;13.952;100.608;2023-03-16T00:09:09;1012.96;;;30.33;64.61
37170;BME280;23062;13.952;100.608;2023-03-16T00:13:37;1013.03;;;30.33;64.58
37170;BME280;23062;13.952;100.608;2023-03-16T00:18:04;1013.07;;;30.33;64.88
37170;BME280;23062;13.952;100.608;2023-03-16T00:22:30;1013.18;;;30.33;64.85
37170;BME280;23062;13.952;100.608;2023-03-16T00:26:54;1013.19;;;30.32;65.02
37170;BME280;23062;13.952;100.608;2023-03-16T00:31:21;1013.24;;;30.31;65.01
37170;BME280;23062;13.952;100.608;2023-03-16T00:35:49;1013.37;;;30.33;64.93
37170;BME280;23062;13.952;100.608;2023-03-16T00:40:16;1013.47;;;30.32;64.99
37170;BME280;23062;13.952;100.608;2023-03-16T00:44:42;1013.51;;;30.34;64.84
37170;BME280;23062;13.952;100.608;2023-03-16T00:49:07;1013.55;;;30.34;64.90
37170;BME280;23062;13.952;100.608;2023-03-16T00:53:33;1013.59;;;30.35;64.90
37170;BME280;23062;13.952;100.608;2023-03-16T00:57:59;1013.72;;;30.35;64.81
37170;BME280;23062;13.952;100.608;2023-03-16T01:02:26;1013.77;;;30.33;65.27
37170;BME280;23062;13.952;100.608;2023-03-16T01:06:50;1013.87;;;30.30;65.93
37170;BME280;23062;13.952;100.608;2023-03-16T01:11:19;1013.94;;;30.32;65.42
37170;BME280;23062;13.952;100.608;2023-03-16T01:15:44;1014.01;;;30.38;65.12
37170;BME280;23062;13.952;100.608;2023-03-16T01:20:10;1014.11;;;30.38;65.67
37170;BME280;23062;13.952;100.608;2023-03-16T01:24:40;1014.15;;;30.39;64.87
37170;BME280;23062;13.952;100.608;2023-03-16T01:29:06;1014.22;;;30.38;65.45
37170;BME280;23062;13.952;100.608;2023-03-16T01:33:32;1014.25;;;30.42;64.84
37170;BME280;23062;13.952;100.608;2023-03-16T01:38:01;1014.25;;;30.47;64.46
37170;BME280;23062;13.952;100.608;2023-03-16T01:42:29;1014.39;;;30.50;64.28
37170;BME280;23062;13.952;100.608;2023-03-16T01:46:53;1014.42;;;30.50;64.39
37170;BME280;23062;13.952;100.608;2023-03-16T01:55:52;1014.44;;;30.53;63.91
37170;BME280;23062;13.952;100.608;2023-03-16T02:00:19;1014.53;;;30.59;63.92
37170;BME280;23062;13.952;100.608;2023-03-16T02:04:58;1014.51;;;30.60;63.79
37170;BME280;23062;13.952;100.608;2023-03-16T02:09:19;1014.56;;;30.62;63.66
37170;BME280;23062;13.952;100.608;2023-03-16T02:13:46;1014.56;;;30.62;63.44
37170;BME280;23062;13.952;100.608;2023-03-16T02:18:15;1014.60;;;30.65;63.37
37170;BME280;23062;13.952;100.608;2023-03-16T02:22:47;1014.64;;;30.67;63.27
37170;BME280;23062;13.952;100.608;2023-03-16T02:31:44;1014.65;;;30.70;63.17
37170;BME280;23062;13.952;100.608;2023-03-16T02:36:10;1014.72;;;30.71;63.22
37170;BME280;23062;13.952;100.608;2023-03-16T02:40:36;1014.71;;;30.71;63.31
37170;BME280;23062;13.952;100.608;2023-03-16T02:45:05;1014.76;;;30.71;63.20
37170;BME280;23062;13.952;100.608;2023-03-16T02:49:33;1014.75;;;30.73;62.86
37170;BME280;23062;13.952;100.608;2023-03-16T02:53:58;1014.71;;;30.73;62.78
37170;BME280;23062;13.952;100.608;2023-03-16T02:58:23;1014.72;;;30.64;63.02
37170;BME280;23062;13.952;100.608;2023-03-16T03:02:50;1014.70;;;30.57;63.25
37170;BME280;23062;13.952;100.608;2023-03-16T03:07:16;1014.65;;;30.61;63.30
37170;BME280;23062;13.952;100.608;2023-03-16T03:11:40;1014.61;;;30.62;63.37
37170;BME280;23062;13.952;100.608;2023-03-16T03:16:04;1014.64;;;30.65;63.38
37170;BME280;23062;13.952;100.608;2023-03-16T03:20:29;1014.60;;;30.70;63.25
37170;BME280;23062;13.952;100.608;2023-03-16T03:25:01;1014.57;;;30.76;63.14
37170;BME280;23062;13.952;100.608;2023-03-16T03:29:26;1014.53;;;30.75;63.13
37170;BME280;23062;13.952;100.608;2023-03-16T03:33:55;1014.48;;;30.77;62.97
37170;BME280;23062;13.952;100.608;2023-03-16T03:38:20;1014.43;;;30.78;62.70
37170;BME280;23062;13.952;100.608;2023-03-16T03:42:47;1014.47;;;30.77;62.58
37170;BME280;23062;13.952;100.608;2023-03-16T03:47:12;1014.35;;;30.79;62.54
37170;BME280;23062;13.952;100.608;2023-03-16T03:51:38;1014.29;;;30.77;62.07
37170;BME280;23062;13.952;100.608;2023-03-16T03:56:04;1014.27;;;30.79;61.71
37170;BME280;23062;13.952;100.608;2023-03-16T04:00:29;1014.22;;;30.78;61.11
37170;BME280;23062;13.952;100.608;2023-03-16T04:04:54;1014.14;;;30.82;60.55
37170;BME280;23062;13.952;100.608;2023-03-16T04:09:19;1014.10;;;30.83;59.77
37170;BME280;23062;13.952;100.608;2023-03-16T04:13:43;1014.09;;;30.91;59.00
37170;BME280;23062;13.952;100.608;2023-03-16T04:18:08;1013.94;;;30.88;59.50
37170;BME280;23062;13.952;100.608;2023-03-16T04:22:32;1013.92;;;30.85;59.92
37170;BME280;23062;13.952;100.608;2023-03-16T04:26:58;1013.94;;;30.85;60.09
37170;BME280;23062;13.952;100.608;2023-03-16T04:31:25;1013.86;;;30.85;60.09
37170;BME280;23062;13.952;100.608;2023-03-16T04:35:50;1013.62;;;30.85;60.08
37170;BME280;23062;13.952;100.608;2023-03-16T04:40:15;1013.50;;;30.88;59.71
37170;BME280;23062;13.952;100.608;2023-03-16T04:44:40;1013.48;;;30.90;59.44
37170;BME280;23062;13.952;100.608;2023-03-16T04:49:05;1013.36;;;30.95;59.74
37170;BME280;23062;13.952;100.608;2023-03-16T04:53:32;1013.34;;;31.04;59.87
37170;BME280;23062;13.952;100.608;2023-03-16T04:57:57;1013.31;;;31.14;59.62
37170;BME280;23062;13.952;100.608;2023-03-16T05:02:27;1013.09;;;31.17;59.61
37170;BME280;23062;13.952;100.608;2023-03-16T05:06:52;1013.11;;;31.18;59.60
37170;BME280;23062;13.952;100.608;2023-03-16T05:11:17;1013.00;;;31.18;59.63
37170;BME280;23062;13.952;100.608;2023-03-16T05:15:42;1012.89;;;31.17;59.60
37170;BME280;23062;13.952;100.608;2023-03-16T05:20:08;1012.87;;;31.17;59.64
37170;BME280;23062;13.952;100.608;2023-03-16T05:24:35;1012.81;;;31.18;59.63
37170;BME280;23062;13.952;100.608;2023-03-16T05:29:00;1012.74;;;31.16;59.22
37170;BME280;23062;13.952;100.608;2023-03-16T05:33:25;1012.63;;;31.20;59.16
37170;BME280;23062;13.952;100.608;2023-03-16T05:37:50;1012.53;;;31.23;59.02
37170;BME280;23062;13.952;100.608;2023-03-16T05:42:22;1012.40;;;31.24;59.09
37170;BME280;23062;13.952;100.608;2023-03-16T05:46:48;1012.37;;;31.23;59.14
37170;BME280;23062;13.952;100.608;2023-03-16T05:51:14;1012.23;;;31.23;59.34
37170;BME280;23062;13.952;100.608;2023-03-16T05:55:39;1012.09;;;31.24;59.30
37170;BME280;23062;13.952;100.608;2023-03-16T06:00:05;1012.10;;;31.26;59.07
37170;BME280;23062;13.952;100.608;2023-03-16T06:04:37;1011.98;;;31.26;59.20
37170;BME280;23062;13.952;100.608;2023-03-16T06:09:02;1011.85;;;31.28;59.12
37170;BME280;23062;13.952;100.608;2023-03-16T06:13:31;1011.80;;;31.28;59.04
37170;BME280;23062;13.952;100.608;2023-03-16T06:17:56;1011.74;;;31.28;58.91
37170;BME280;23062;13.952;100.608;2023-03-16T06:22:22;1011.61;;;31.29;58.79
37170;BME280;23062;13.952;100.608;2023-03-16T06:26:47;1011.53;;;31.28;58.56
37170;BME280;23062;13.952;100.608;2023-03-16T06:31:12;1011.44;;;31.28;58.60
37170;BME280;23062;13.952;100.608;2023-03-16T06:35:37;1011.37;;;31.31;58.55
37170;BME280;23062;13.952;100.608;2023-03-16T06:40:03;1011.24;;;31.32;58.53
37170;BME280;23062;13.952;100.608;2023-03-16T06:44:28;1011.15;;;31.32;58.44
37170;BME280;23062;13.952;100.608;2023-03-16T06:48:57;1011.08;;;31.33;58.33
37170;BME280;23062;13.952;100.608;2023-03-16T06:53:25;1010.97;;;31.35;58.33
37170;BME280;23062;13.952;100.608;2023-03-16T06:57:50;1010.85;;;31.37;58.51
37170;BME280;23062;13.952;100.608;2023-03-16T07:02:17;1010.81;;;31.40;58.32
37170;BME280;23062;13.952;100.608;2023-03-16T07:06:44;1010.77;;;31.41;58.43
37170;BME280;23062;13.952;100.608;2023-03-16T07:11:09;1010.74;;;31.42;58.42
37170;BME280;23062;13.952;100.608;2023-03-16T07:15:34;1010.67;;;31.43;58.43
37170;BME280;23062;13.952;100.608;2023-03-16T07:19:59;1010.62;;;31.42;58.34
37170;BME280;23062;13.952;100.608;2023-03-16T07:24:26;1010.57;;;31.42;58.41
37170;BME280;23062;13.952;100.608;2023-03-16T07:28:54;1010.57;;;31.42;58.40
37170;BME280;23062;13.952;100.608;2023-03-16T07:33:19;1010.51;;;31.42;58.34
37170;BME280;23062;13.952;100.608;2023-03-16T07:37:44;1010.36;;;31.42;58.33
37170;BME280;23062;13.952;100.608;2023-03-16T07:42:10;1010.35;;;31.45;58.25
37170;BME280;23062;13.952;100.608;2023-03-16T07:46:35;1010.19;;;31.46;58.25
37170;BME280;23062;13.952;100.608;2023-03-16T07:51:00;1010.13;;;31.45;58.02
37170;BME280;23062;13.952;100.608;2023-03-16T07:55:24;1010.10;;;31.49;57.81
37170;BME280;23062;13.952;100.608;2023-03-16T07:59:49;1010.11;;;31.49;57.90
37170;BME280;23062;13.952;100.608;2023-03-16T08:04:15;1010.01;;;31.48;57.97
37170;BME280;23062;13.952;100.608;2023-03-16T08:08:40;1009.84;;;31.49;57.88
37170;BME280;23062;13.952;100.608;2023-03-16T08:13:06;1009.75;;;31.49;57.90
37170;BME280;23062;13.952;100.608;2023-03-16T08:17:32;1009.74;;;31.49;57.74
37170;BME280;23062;13.952;100.608;2023-03-16T08:21:56;1009.80;;;31.48;57.74
37170;BME280;23062;13.952;100.608;2023-03-16T08:26:23;1009.76;;;31.50;57.72
37170;BME280;23062;13.952;100.608;2023-03-16T08:30:50;1009.75;;;31.51;57.59
37170;BME280;23062;13.952;100.608;2023-03-16T08:35:16;1009.67;;;31.51;57.43
37170;BME280;23062;13.952;100.608;2023-03-16T08:39:44;1009.66;;;31.53;57.30
37170;BME280;23062;13.952;100.608;2023-03-16T08:44:13;1009.58;;;31.55;57.15
37170;BME280;23062;13.952;100.608;2023-03-16T08:48:43;1009.51;;;31.57;57.04
37170;BME280;23062;13.952;100.608;2023-03-16T08:53:04;1009.52;;;31.61;56.90
37170;BME280;23062;13.952;100.608;2023-03-16T08:57:30;1009.53;;;31.64;56.73
37170;BME280;23062;13.952;100.608;2023-03-16T09:01:56;1009.56;;;31.64;56.70
37170;BME280;23062;13.952;100.608;2023-03-16T09:06:21;1009.44;;;31.65;56.64
37170;BME280;23062;13.952;100.608;2023-03-16T09:10:48;1009.45;;;31.65;56.48
37170;BME280;23062;13.952;100.608;2023-03-16T09:15:14;1009.42;;;31.67;56.41
37170;BME280;23062;13.952;100.608;2023-03-16T09:19:46;1009.38;;;31.67;56.48
37170;BME280;23062;13.952;100.608;2023-03-16T09:24:14;1009.49;;;31.67;56.44
37170;BME280;23062;13.952;100.608;2023-03-16T09:28:41;1009.45;;;31.68;56.48
37170;BME280;23062;13.952;100.608;2023-03-16T09:33:06;1009.49;;;31.71;56.55
37170;BME280;23062;13.952;100.608;2023-03-16T09:37:34;1009.51;;;31.69;56.58
37170;BME280;23062;13.952;100.608;2023-03-16T09:42:07;1009.53;;;31.69;56.72
37170;BME280;23062;13.952;100.608;2023-03-16T09:46:35;1009.56;;;31.71;56.84
37170;BME280;23062;13.952;100.608;2023-03-16T09:51:02;1009.55;;;31.72;56.72
37170;BME280;23062;13.952;100.608;2023-03-16T09:55:29;1009.58;;;31.72;56.92
37170;BME280;23062;13.952;100.608;2023-03-16T09:59:57;1009.72;;;31.74;56.91
37170;BME280;23062;13.952;100.608;2023-03-16T10:04:37;1009.63;;;31.74;56.93
37170;BME280;23062;13.952;100.608;2023-03-16T10:18:13;1009.73;;;31.75;56.86
37170;BME280;23062;13.952;100.608;2023-03-16T10:22:41;1009.82;;;31.73;56.78
37170;BME280;23062;13.952;100.608;2023-03-16T10:27:06;1009.88;;;31.75;56.76
37170;BME280;23062;13.952;100.608;2023-03-16T10:31:33;1009.92;;;31.74;56.85
37170;BME280;23062;13.952;100.608;2023-03-16T10:36:15;1009.89;;;31.74;56.53
37170;BME280;23062;13.952;100.608;2023-03-16T10:40:39;1009.93;;;31.74;56.42
37170;BME280;23062;13.952;100.608;2023-03-16T10:45:10;1010.03;;;31.72;56.55
37170;BME280;23062;13.952;100.608;2023-03-16T10:49:41;1010.02;;;31.72;56.55
37170;BME280;23062;13.952;100.608;2023-03-16T10:54:18;1010.00;;;31.60;57.00
37170;BME280;23062;13.952;100.608;2023-03-16T10:58:42;1010.03;;;31.53;57.17
37170;BME280;23062;13.952;100.608;2023-03-16T11:07:49;1010.05;;;31.48;57.24
37170;BME280;23062;13.952;100.608;2023-03-16T11:12:23;1010.09;;;31.45;57.30
37170;BME280;23062;13.952;100.608;2023-03-16T11:17:02;1010.10;;;31.45;57.35
37170;BME280;23062;13.952;100.608;2023-03-16T11:21:40;1010.17;;;31.44;57.26
37170;BME280;23062;13.952;100.608;2023-03-16T11:26:06;1010.25;;;31.44;57.61
37170;BME280;23062;13.952;100.608;2023-03-16T11:35:15;1010.27;;;31.39;58.67
37170;BME280;23062;13.952;100.608;2023-03-16T11:39:50;1010.38;;;31.37;58.74
37170;BME280;23062;13.952;100.608;2023-03-16T11:44:25;1010.47;;;31.34;58.92
37170;BME280;23062;13.952;100.608;2023-03-16T11:48:51;1010.47;;;31.33;59.08
37170;BME280;23062;13.952;100.608;2023-03-16T12:02:43;1010.69;;;31.31;58.85
37170;BME280;23062;13.952;100.608;2023-03-16T12:07:17;1010.70;;;31.30;58.80
37170;BME280;23062;13.952;100.608;2023-03-16T12:11:46;1010.66;;;31.28;58.63
37170;BME280;23062;13.952;100.608;2023-03-16T12:16:20;1010.71;;;31.28;58.54
37170;BME280;23062;13.952;100.608;2023-03-16T12:20:59;1010.73;;;31.28;58.35
37170;BME280;23062;13.952;100.608;2023-03-16T12:25:35;1010.88;;;31.25;58.32
37170;BME280;23062;13.952;100.608;2023-03-16T12:34:59;1010.98;;;31.24;58.21
37170;BME280;23062;13.952;100.608;2023-03-16T12:39:43;1011.03;;;31.24;58.23
37170;BME280;23062;13.952;100.608;2023-03-16T12:44:14;1011.10;;;31.21;57.98
37170;BME280;23062;13.952;100.608;2023-03-16T12:48:49;1011.08;;;31.20;58.46
37170;BME280;23062;13.952;100.608;2023-03-16T12:58:03;1011.31;;;31.18;58.64
37170;BME280;23062;13.952;100.608;2023-03-16T13:02:32;1011.39;;;31.18;58.73
37170;BME280;23062;13.952;100.608;2023-03-16T13:07:04;1011.39;;;31.17;58.90
37170;BME280;23062;13.952;100.608;2023-03-16T13:11:41;1011.43;;;31.19;58.90
37170;BME280;23062;13.952;100.608;2023-03-16T13:16:09;1011.58;;;31.19;59.02
37170;BME280;23062;13.952;100.608;2023-03-16T13:25:17;1011.67;;;31.18;59.09
37170;BME280;23062;13.952;100.608;2023-03-16T13:30:01;1011.74;;;31.13;59.15
37170;BME280;23062;13.952;100.608;2023-03-16T13:34:35;1011.89;;;31.13;58.93
37170;BME280;23062;13.952;100.608;2023-03-16T13:39:16;1011.98;;;31.12;58.94
37170;BME280;23062;13.952;100.608;2023-03-16T13:43:48;1012.10;;;31.13;58.92
37170;BME280;23062;13.952;100.608;2023-03-16T13:48:17;1012.15;;;31.14;58.83
37170;BME280;23062;13.952;100.608;2023-03-16T13:52:42;1012.17;;;31.18;58.59
37170;BME280;23062;13.952;100.608;2023-03-16T13:57:16;1012.26;;;31.32;58.16
37170;BME280;23062;13.952;100.608;2023-03-16T14:01:44;1012.26;;;31.39;57.90
37170;BME280;23062;13.952;100.608;2023-03-16T14:06:24;1012.29;;;31.42;57.79
37170;BME280;23062;13.952;100.608;2023-03-16T14:10:50;1012.29;;;31.42;57.73
37170;BME280;23062;13.952;100.608;2023-03-16T14:15:18;1012.40;;;31.42;57.73
37170;BME280;23062;13.952;100.608;2023-03-16T14:19:49;1012.45;;;31.42;57.77
37170;BME280;23062;13.952;100.608;2023-03-16T14:24:34;1012.54;;;31.42;57.71
37170;BME280;23062;13.952;100.608;2023-03-16T14:29:24;1012.47;;;31.42;57.73
37170;BME280;23062;13.952;100.608;2023-03-16T14:33:50;1012.54;;;31.42;57.73
37170;BME280;23062;13.952;100.608;2023-03-16T14:38:30;1012.68;;;31.42;57.72
37170;BME280;23062;13.952;100.608;2023-03-16T14:42:58;1012.68;;;31.41;57.73
37170;BME280;23062;13.952;100.608;2023-03-16T14:47:25;1012.64;;;31.41;57.78
37170;BME280;23062;13.952;100.608;2023-03-16T14:51:52;1012.60;;;31.40;57.73
37170;BME280;23062;13.952;100.608;2023-03-16T14:56:18;1012.57;;;31.40;57.90
37170;BME280;23062;13.952;100.608;2023-03-16T15:00:43;1012.59;;;31.40;58.18
37170;BME280;23062;13.952;100.608;2023-03-16T15:05:10;1012.64;;;31.39;57.94
37170;BME280;23062;13.952;100.608;2023-03-16T15:09:40;1012.72;;;31.40;58.38
37170;BME280;23062;13.952;100.608;2023-03-16T15:14:10;1012.77;;;31.40;58.61
37170;BME280;23062;13.952;100.608;2023-03-16T15:18:39;1012.74;;;31.39;58.55
37170;BME280;23062;13.952;100.608;2023-03-16T15:23:05;1012.73;;;31.38;58.90
37170;BME280;23062;13.952;100.608;2023-03-16T15:27:33;1012.74;;;31.37;58.49
37170;BME280;23062;13.952;100.608;2023-03-16T15:31:58;1012.77;;;31.37;58.94
37170;BME280;23062;13.952;100.608;2023-03-16T15:36:26;1012.78;;;31.36;58.97
37170;BME280;23062;13.952;100.608;2023-03-16T15:40:55;1012.84;;;31.36;59.02
37170;BME280;23062;13.952;100.608;2023-03-16T15:45:21;1012.91;;;31.37;59.10
37170;BME280;23062;13.952;100.608;2023-03-16T15:49:47;1012.91;;;31.35;59.33
37170;BME280;23062;13.952;100.608;2023-03-16T15:54:16;1012.90;;;31.34;59.12
37170;BME280;23062;13.952;100.608;2023-03-16T15:58:43;1012.95;;;31.35;59.50
37170;BME280;23062;13.952;100.608;2023-03-16T16:03:09;1013.03;;;31.34;59.39
37170;BME280;23062;13.952;100.608;2023-03-16T16:07:36;1013.11;;;31.34;59.60
37170;BME280;23062;13.952;100.608;2023-03-16T16:12:01;1013.17;;;31.32;59.57
37170;BME280;23062;13.952;100.608;2023-03-16T16:16:28;1013.11;;;31.32;59.65
37170;BME280;23062;13.952;100.608;2023-03-16T16:20:55;1013.12;;;31.32;59.75
37170;BME280;23062;13.952;100.608;2023-03-16T16:25:22;1013.06;;;31.30;59.83
37170;BME280;23062;13.952;100.608;2023-03-16T16:29:49;1013.08;;;31.30;59.91
37170;BME280;23062;13.952;100.608;2023-03-16T16:34:19;1013.08;;;31.30;59.94
37170;BME280;23062;13.952;100.608;2023-03-16T16:38:48;1013.05;;;31.30;60.04
37170;BME280;23062;13.952;100.608;2023-03-16T16:43:20;1013.06;;;31.29;60.04
37170;BME280;23062;13.952;100.608;2023-03-16T16:47:48;1013.03;;;31.28;60.16
37170;BME280;23062;13.952;100.608;2023-03-16T16:52:16;1013.08;;;31.28;60.24
37170;BME280;23062;13.952;100.608;2023-03-16T16:56:42;1013.03;;;31.27;60.19
37170;BME280;23062;13.952;100.608;2023-03-16T17:01:14;1013.01;;;31.26;60.31
37170;BME280;23062;13.952;100.608;2023-03-16T17:05:42;1012.90;;;31.25;60.33
37170;BME280;23062;13.952;100.608;2023-03-16T17:10:08;1012.84;;;31.25;60.44
37170;BME280;23062;13.952;100.608;2023-03-16T17:14:33;1012.82;;;31.23;60.54
37170;BME280;23062;13.952;100.608;2023-03-16T17:18:59;1012.74;;;31.22;60.48
37170;BME280;23062;13.952;100.608;2023-03-16T17:23:32;1012.67;;;31.21;60.59
37170;BME280;23062;13.952;100.608;2023-03-16T17:27:59;1012.60;;;31.19;60.72
37170;BME280;23062;13.952;100.608;2023-03-16T17:32:24;1012.59;;;31.19;60.79
37170;BME280;23062;13.952;100.608;2023-03-16T17:36:50;1012.57;;;31.18;60.89
37170;BME280;23062;13.952;100.608;2023-03-16T17:41:27;1012.54;;;31.17;60.87
37170;BME280;23062;13.952;100.608;2023-03-16T17:45:55;1012.52;;;31.17;60.90
37170;BME280;23062;13.952;100.608;2023-03-16T17:50:23;1012.48;;;31.17;60.73
37170;BME280;23062;13.952;100.608;2023-03-16T17:54:50;1012.37;;;31.18;60.58
37170;BME280;23062;13.952;100.608;2023-03-16T17:59:17;1012.33;;;31.17;60.53
37170;BME280;23062;13.952;100.608;2023-03-16T18:03:42;1012.37;;;31.17;60.45
37170;BME280;23062;13.952;100.608;2023-03-16T18:08:16;1012.29;;;31.16;60.54
37170;BME280;23062;13.952;100.608;2023-03-16T18:12:42;1012.26;;;31.15;60.51
37170;BME280;23062;13.952;100.608;2023-03-16T18:21:48;1012.12;;;31.15;60.33
37170;BME280;23062;13.952;100.608;2023-03-16T18:26:13;1012.03;;;31.12;60.67
37170;BME280;23062;13.952;100.608;2023-03-16T18:30:39;1011.97;;;31.11;60.78
37170;BME280;23062;13.952;100.608;2023-03-16T18:35:05;1011.88;;;31.10;61.07
37170;BME280;23062;13.952;100.608;2023-03-16T18:39:30;1011.90;;;31.08;61.25
37170;BME280;23062;13.952;100.608;2023-03-16T18:43:57;1011.82;;;31.09;60.73
37170;BME280;23062;13.952;100.608;2023-03-16T18:48:35;1011.74;;;31.07;60.67
37170;BME280;23062;13.952;100.608;2023-03-16T18:53:03;1011.68;;;31.05;60.86
37170;BME280;23062;13.952;100.608;2023-03-16T18:57:36;1011.65;;;31.05;61.19
37170;BME280;23062;13.952;100.608;2023-03-16T19:02:03;1011.62;;;31.05;60.87
37170;BME280;23062;13.952;100.608;2023-03-16T19:06:30;1011.57;;;31.04;60.93
37170;BME280;23062;13.952;100.608;2023-03-16T19:10:59;1011.47;;;31.04;60.90
37170;BME280;23062;13.952;100.608;2023-03-16T19:15:27;1011.44;;;31.04;60.79
37170;BME280;23062;13.952;100.608;2023-03-16T19:19:52;1011.39;;;31.04;60.80
37170;BME280;23062;13.952;100.608;2023-03-16T19:28:49;1011.24;;;31.03;60.71
37170;BME280;23062;13.952;100.608;2023-03-16T19:33:22;1011.23;;;31.03;60.77
37170;BME280;23062;13.952;100.608;2023-03-16T19:37:51;1011.20;;;31.03;60.88
37170;BME280;23062;13.952;100.608;2023-03-16T19:42:25;1011.25;;;31.01;61.05
37170;BME280;23062;13.952;100.608;2023-03-16T19:46:51;1011.26;;;30.99;61.35
37170;BME280;23062;13.952;100.608;2023-03-16T19:51:17;1011.25;;;30.98;61.27
37170;BME280;23062;13.952;100.608;2023-03-16T19:55:42;1011.29;;;30.94;61.46
37170;BME280;23062;13.952;100.608;2023-03-16T20:00:14;1011.27;;;30.91;61.63
37170;BME280;23062;13.952;100.608;2023-03-16T20:04:36;1011.23;;;30.91;61.74
37170;BME280;23062;13.952;100.608;2023-03-16T20:09:01;1011.19;;;30.88;61.85
37170;BME280;23062;13.952;100.608;2023-03-16T20:13:28;1011.17;;;30.86;61.95
37170;BME280;23062;13.952;100.608;2023-03-16T20:17:54;1011.17;;;30.85;61.93
37170;BME280;23062;13.952;100.608;2023-03-16T20:22:22;1011.13;;;30.83;61.88
37170;BME280;23062;13.952;100.608;2023-03-16T20:26:50;1011.04;;;30.83;61.70
37170;BME280;23062;13.952;100.608;2023-03-16T20:31:26;1010.99;;;30.79;61.71
37170;BME280;23062;13.952;100.608;2023-03-16T20:35:48;1011.02;;;30.78;61.67
37170;BME280;23062;13.952;100.608;2023-03-16T20:40:15;1011.05;;;30.77;61.58
37170;BME280;23062;13.952;100.608;2023-03-16T20:44:41;1011.03;;;30.77;61.58
37170;BME280;23062;13.952;100.608;2023-03-16T20:53:44;1011.10;;;30.74;61.58
37170;BME280;23062;13.952;100.608;2023-03-16T20:58:34;1011.07;;;30.74;61.55
37170;BME280;23062;13.952;100.608;2023-03-16T21:02:58;1011.08;;;30.74;61.59
37170;BME280;23062;13.952;100.608;2023-03-16T21:07:26;1011.04;;;30.67;61.72
37170;BME280;23062;13.952;100.608;2023-03-16T21:11:51;1011.06;;;30.51;62.37
37170;BME280;23062;13.952;100.608;2023-03-16T21:16:23;1011.02;;;30.38;62.78
37170;BME280;23062;13.952;100.608;2023-03-16T21:20:49;1011.04;;;30.29;63.16
37170;BME280;23062;13.952;100.608;2023-03-16T21:25:26;1011.13;;;30.26;63.29
37170;BME280;23062;13.952;100.608;2023-03-16T21:29:54;1011.11;;;30.18;63.61
37170;BME280;23062;13.952;100.608;2023-03-16T21:34:25;1011.13;;;30.18;63.66
37170;BME280;23062;13.952;100.608;2023-03-16T21:38:50;1011.15;;;30.21;63.59
37170;BME280;23062;13.952;100.608;2023-03-16T21:43:19;1011.13;;;30.20;63.70
37170;BME280;23062;13.952;100.608;2023-03-16T21:47:50;1011.21;;;30.17;63.86
37170;BME280;23062;13.952;100.608;2023-03-16T21:52:24;1011.21;;;30.18;63.75
37170;BME280;23062;13.952;100.608;2023-03-16T21:56:53;1011.30;;;30.12;64.06
37170;BME280;23062;13.952;100.608;2023-03-16T22:01:28;1011.34;;;30.04;64.51
37170;BME280;23062;13.952;100.608;2023-03-16T22:05:58;1011.32;;;29.99;64.79
37170;BME280;23062;13.952;100.608;2023-03-16T22:10:24;1011.41;;;29.97;64.85
37170;BME280;23062;13.952;100.608;2023-03-16T22:14:50;1011.47;;;29.97;64.81
37170;BME280;23062;13.952;100.608;2023-03-16T22:19:14;1011.47;;;30.02;64.72
37170;BME280;23062;13.952;100.608;2023-03-16T22:23:40;1011.53;;;30.12;64.29
37170;BME280;23062;13.952;100.608;2023-03-16T22:28:09;1011.55;;;30.18;64.27
37170;BME280;23062;13.952;100.608;2023-03-16T22:32:33;1011.65;;;30.20;64.33
37170;BME280;23062;13.952;100.608;2023-03-16T22:36:58;1011.72;;;30.24;64.29
37170;BME280;23062;13.952;100.608;2023-03-16T22:41:23;1011.78;;;30.28;64.21
37170;BME280;23062;13.952;100.608;2023-03-16T22:45:49;1011.79;;;30.42;63.54
37170;BME280;23062;13.952;100.608;2023-03-16T22:50:16;1011.83;;;30.44;63.42
37170;BME280;23062;13.952;100.608;2023-03-16T22:54:41;1011.96;;;30.44;63.47
37170;BME280;23062;13.952;100.608;2023-03-16T22:59:09;1012.14;;;30.44;63.52
37170;BME280;23062;13.952;100.608;2023-03-16T23:03:33;1012.15;;;30.42;63.79
37170;BME280;23062;13.952;100.608;2023-03-16T23:08:08;1012.16;;;30.40;64.05
37170;BME280;23062;13.952;100.608;2023-03-16T23:12:35;1012.23;;;30.39;64.40
37170;BME280;23062;13.952;100.608;2023-03-16T23:17:00;1012.27;;;30.38;64.60
37170;BME280;23062;13.952;100.608;2023-03-16T23:21:28;1012.32;;;30.36;64.82
37170;BME280;23062;13.952;100.608;2023-03-16T23:25:57;1012.38;;;30.36;64.92
37170;BME280;23062;13.952;100.608;2023-03-16T23:30:23;1012.52;;;30.35;65.01
37170;BME280;23062;13.952;100.608;2023-03-16T23:34:49;1012.62;;;30.34;65.13
37170;BME280;23062;13.952;100.608;2023-03-16T23:39:17;1012.68;;;30.33;65.16
37170;BME280;23062;13.952;100.608;2023-03-16T23:43:43;1012.69;;;30.33;65.25
37170;BME280;23062;13.952;100.608;2023-03-16T23:48:19;1012.79;;;30.32;65.26
37170;BME280;23062;13.952;100.608;2023-03-16T23:52:44;1012.91;;;30.31;65.33
37170;BME280;23062;13.952;100.608;2023-03-16T23:57:11;1012.95;;;30.32;65.33
